Lamont, WA

4:16 PM PDT on September 02, 2014 (GMT -0700)
Fairchild Air Force Base | Change Station
CLOSE
Current Station
Airport
Location: Spokane Fairchild,
Elevation: 2461 ft
Nearby Weather Stations

Elev 2461 ft 47.62 °N, 117.66 °W | Updated 18 minutes ago

Overcast
Overcast
73 °F
Feels Like 73 °F
N
17
Wind Variable Wind from WSW

Today
High -- | Low -- °F
--% Chance of Precip.
Yesterday
High -- | Low -- °F
Precip. -- in
6:11 AM 7:28 PM
First Quarter, 56% visible
Pressure 29.73 in
Visibility 10.0 miles
Clouds Overcast 14000 ft
Dew Point 40 °F
Humidity 30%
Rainfall 0.00 in
Snow Depth Not available.
UV 1 out of 12
Pollen 6.40 out of 12
Air Quality Not available.
Flu Activity Not available.
METAR KSKA 022258Z AUTO 25015KT 10SM OVC140 23/05 A2974 RMK AO2 SLP065 T02280045

More Conditions Fewer Conditions

Pressure 29.73 in
Visibility 10.0 miles
Clouds Overcast 14000 ft
Dew Point 40 °F
Humidity 30%
Rainfall 0.00 in
Snow Depth Not available.
UV 1 out of 12
Pollen 6.40 out of 12
Air Quality Not available.
Flu Activity Not available.
METAR KSKA 022258Z AUTO 25015KT 10SM OVC140 23/05 A2974 RMK AO2 SLP065 T02280045

More Conditions Fewer Conditions

10-Day Weather Forecast

Almanac

Astronomy

Sep. 02, 2014 Rise Set
Actual Time 6:11 AM PDT 7:28 PM PDT
Civil Twilight 5:40 AM PDT 8:00 PM PDT
Nautical Twilight 5:02 AM PDT 8:38 PM PDT
Astronomical Twilight 4:21 AM PDT 9:18 PM PDT
Moon 2:28 PM PDT 11:58 PM PDT
Length of Visible Light 14h 20m
Length of Day
13h 17m
Tomorrow will be 3m 16s shorter.
First Quarter, 56% of the Moon is Illuminated
Today
First Quarter
Sep 8
Full
Sep 15
Last Quarter
Sep 24
New
Oct 1
First Quarter

Today's Extremes

State Highs State Lows

Community

WunderPhotos

Upload Photos

1,749,794 photos uploaded!

Nearby

Snow Depth

Station Depth Elevation
Quartz Peak 1 in 4700 ft
Touchet 0 in 5530 ft
Moses Mountain 1 in 5300 ft
Sentinel Butte 0 in 4920 ft
Trough 0 in 5300 ft

Earthquake Activity

City Distance Mag. Time & Date
Mullan, Idaho 95 miles 2.5 1:01 AM PDT
2014-08-31
Minimum magnitude displayed is 2.5.

Coastal Water Temperatures

Place Temperature
No Stations Reporting

Nearby Weather Stations